Aviation Digital Data Service (ADDS)

Output produced by METARs form (1706 UTC 19 January 2017)
found at http://aviationweather.gov/adds/metars/
 
KFDY 191613Z 1916/2012 22007KT P6SM OVC007 
     FM191800 16005KT P6SM BKN100 OVC250 
     FM192300 10005KT P6SM OVC100 
     FM200600 08005KT 6SM -RA OVC040 
     FM200800 08007KT 3SM -RA BR OVC007